SAS2902 LPMA-ENGM
Flight info
| Callsign | SAS2902 |
|---|---|
| Flight time | 4h 39m |
| Altitude | 32000 |
| Route | DEGUN1E DEGUN DCT ROLAR DCT VERAM/N0450F340 DCT IBIDO DCT DEMOS DCT SOSOV DCT DOLUR/N0450F350 DCT UNFIT DCT INFEC DCT KISWO DCT AVTIC DCT ANJAK/N0446F340 N38 NOKIN UP16 RIBEL/N0446F350 DCT ALOTI DCT ZOL DCT ROPNO DCT ADOPI ADOPI3L |
| Aircraft | A21N/M-SDE3FGHIRWY/LB1 |
Departure
| Time | 2026-05-04 08:13 |
|---|---|
| Airport | Cristiano Ronaldo International Airport (LPMA) |
Arrival
| Time | 2026-05-04 12:53 |
|---|---|
| Airport | Oslo-Gardermoen International Airport (ENGM) |
| Time | Latitude | Longitude | Altitude | Speed | Heading |
|---|---|---|---|---|---|
| 2026-05-04 08:04 | 32.69415 | -16.77591 | 165 ft | 0 kts | 137° |
| 2026-05-04 08:05 | 32.69412 | -16.77588 | 164 ft | 0 kts | 138° |
| 2026-05-04 08:05 | 32.69422 | -16.77599 | 167 ft | 2 kts | 137° |
| 2026-05-04 08:05 | 32.69433 | -16.77611 | 171 ft | 2 kts | 138° |
| 2026-05-04 08:06 | 32.69444 | -16.77623 | 174 ft | 2 kts | 137° |
| 2026-05-04 08:06 | 32.69458 | -16.77631 | 177 ft | 2 kts | 176° |
| 2026-05-04 08:06 | 32.69472 | -16.77627 | 179 ft | 2 kts | 210° |
| 2026-05-04 08:06 | 32.69480 | -16.77621 | 179 ft | 1 kts | 231° |
| 2026-05-04 08:08 | 32.69482 | -16.77617 | 179 ft | 0 kts | 226° |
| 2026-05-04 08:10 | 32.69304 | -16.77838 | 172 ft | 18 kts | 234° |
| 2026-05-04 08:11 | 32.69286 | -16.77954 | 175 ft | 10 kts | 273° |
| 2026-05-04 08:11 | 32.69225 | -16.78105 | 169 ft | 16 kts | 227° |
| 2026-05-04 08:11 | 32.69128 | -16.78220 | 154 ft | 22 kts | 221° |
| 2026-05-04 08:12 | 32.69014 | -16.78351 | 136 ft | 19 kts | 225° |
| 2026-05-04 08:12 | 32.68898 | -16.78422 | 119 ft | 14 kts | 229° |
| 2026-05-04 08:12 | 32.68913 | -16.78460 | 121 ft | 3 kts | 23° |
| 2026-05-04 08:12 | 32.68924 | -16.78452 | 123 ft | 6 kts | 38° |
| 2026-05-04 08:13 | 32.69086 | -16.78265 | 149 ft | 66 kts | 44° |
| 2026-05-04 08:13 | 32.69575 | -16.77693 | 205 ft | 128 kts | 44° |
| 2026-05-04 08:13 | 32.70340 | -16.76788 | 229 ft | 177 kts | 45° |
| 2026-05-04 08:13 | 32.71182 | -16.75747 | 887 ft | 175 kts | 53° |
| 2026-05-04 08:14 | 32.71511 | -16.74398 | 1470 ft | 179 kts | 101° |
| 2026-05-04 08:14 | 32.71071 | -16.73034 | 2147 ft | 179 kts | 115° |
| 2026-05-04 08:14 | 32.70524 | -16.71720 | 2775 ft | 181 kts | 115° |
| 2026-05-04 08:16 | 32.66290 | -16.59186 | 6023 ft | 272 kts | 109° |
| 2026-05-04 08:16 | 32.65617 | -16.56992 | 6787 ft | 274 kts | 102° |
| 2026-05-04 08:16 | 32.65567 | -16.54743 | 7465 ft | 273 kts | 73° |
| 2026-05-04 08:17 | 32.66407 | -16.52768 | 8172 ft | 271 kts | 48° |
| 2026-05-04 08:17 | 32.67755 | -16.51175 | 8896 ft | 272 kts | 43° |
| 2026-05-04 08:17 | 32.69136 | -16.49646 | 9547 ft | 275 kts | 43° |
| 2026-05-04 08:17 | 32.70557 | -16.48068 | 10208 ft | 277 kts | 43° |
| 2026-05-04 08:19 | 32.81839 | -16.35252 | 13137 ft | 346 kts | 44° |
| 2026-05-04 08:19 | 32.83598 | -16.33240 | 13749 ft | 348 kts | 44° |
| 2026-05-04 08:20 | 32.85346 | -16.31239 | 14339 ft | 351 kts | 44° |
| 2026-05-04 08:20 | 32.87124 | -16.29203 | 14926 ft | 353 kts | 44° |
| 2026-05-04 08:20 | 32.88917 | -16.27148 | 15500 ft | 355 kts | 44° |
| 2026-05-04 08:20 | 32.90729 | -16.25069 | 16062 ft | 357 kts | 44° |
| 2026-05-04 08:21 | 32.92517 | -16.23017 | 16574 ft | 360 kts | 44° |
| 2026-05-04 08:21 | 32.94333 | -16.20931 | 17099 ft | 363 kts | 44° |
| 2026-05-04 08:21 | 32.96178 | -16.18810 | 17631 ft | 365 kts | 44° |
| 2026-05-04 08:21 | 32.98010 | -16.16702 | 18137 ft | 367 kts | 44° |
| 2026-05-04 08:22 | 32.99876 | -16.14554 | 18629 ft | 369 kts | 44° |
| 2026-05-04 08:22 | 33.01738 | -16.12409 | 19103 ft | 372 kts | 44° |
| 2026-05-04 08:24 | 33.15145 | -15.96931 | 22063 ft | 391 kts | 44° |
| 2026-05-04 08:24 | 33.17112 | -15.94655 | 22461 ft | 393 kts | 44° |
| 2026-05-04 08:24 | 33.19103 | -15.92348 | 22856 ft | 395 kts | 44° |
| 2026-05-04 08:24 | 33.21097 | -15.90037 | 23238 ft | 397 kts | 44° |
| 2026-05-04 08:25 | 33.23092 | -15.87722 | 23607 ft | 399 kts | 44° |
| 2026-05-04 08:25 | 33.25095 | -15.85397 | 23966 ft | 401 kts | 44° |
| 2026-05-04 08:25 | 33.27123 | -15.83041 | 24315 ft | 404 kts | 44° |
| 2026-05-04 08:25 | 33.29141 | -15.80694 | 24648 ft | 406 kts | 44° |
| 2026-05-04 08:26 | 33.31184 | -15.78316 | 24978 ft | 407 kts | 44° |
| 2026-05-04 08:27 | 33.46818 | -15.63052 | 26945 ft | 422 kts | 26° |
| 2026-05-04 08:28 | 33.49503 | -15.61518 | 27205 ft | 423 kts | 26° |
| 2026-05-04 08:28 | 33.52198 | -15.59999 | 27452 ft | 425 kts | 26° |
| 2026-05-04 08:28 | 33.54877 | -15.58488 | 27695 ft | 426 kts | 26° |
| 2026-05-04 08:28 | 33.57606 | -15.56948 | 28005 ft | 426 kts | 26° |
| 2026-05-04 08:29 | 33.60271 | -15.55439 | 28336 ft | 425 kts | 26° |
| 2026-05-04 08:29 | 33.62967 | -15.53911 | 28658 ft | 424 kts | 26° |
| 2026-05-04 08:29 | 33.65664 | -15.52380 | 28967 ft | 423 kts | 26° |
| 2026-05-04 08:31 | 33.84277 | -15.41774 | 30762 ft | 421 kts | 26° |
| 2026-05-04 08:33 | 34.03064 | -15.31016 | 32011 ft | 426 kts | 26° |
| 2026-05-04 08:33 | 34.05718 | -15.29491 | 32081 ft | 427 kts | 26° |
| 2026-05-04 08:35 | 34.27040 | -15.17211 | 32089 ft | 428 kts | 26° |
| 2026-05-04 08:35 | 34.32362 | -15.14137 | 32089 ft | 428 kts | 26° |
| 2026-05-04 08:37 | 34.51138 | -15.03250 | 32089 ft | 427 kts | 26° |
| 2026-05-04 08:38 | 34.56514 | -15.00122 | 32089 ft | 427 kts | 26° |
| 2026-05-04 08:38 | 34.61847 | -14.97014 | 32089 ft | 426 kts | 26° |
| 2026-05-04 08:40 | 34.83148 | -14.84554 | 32089 ft | 425 kts | 27° |
| 2026-05-04 08:41 | 34.88469 | -14.81430 | 32089 ft | 425 kts | 27° |
| 2026-05-04 08:41 | 34.93813 | -14.78285 | 32086 ft | 429 kts | 26° |
| 2026-05-04 08:42 | 34.99235 | -14.75090 | 32086 ft | 434 kts | 26° |
| 2026-05-04 08:42 | 35.04716 | -14.71858 | 32086 ft | 440 kts | 26° |
| 2026-05-04 08:43 | 35.10222 | -14.68610 | 32088 ft | 442 kts | 26° |
| 2026-05-04 08:43 | 35.15761 | -14.65337 | 32089 ft | 442 kts | 26° |
| 2026-05-04 08:44 | 35.21308 | -14.62052 | 32089 ft | 442 kts | 26° |
| 2026-05-04 08:46 | 35.43453 | -14.48887 | 32089 ft | 442 kts | 26° |
| 2026-05-04 08:46 | 35.48940 | -14.45613 | 32089 ft | 442 kts | 26° |
| 2026-05-04 08:47 | 35.54482 | -14.42301 | 32089 ft | 442 kts | 26° |
| 2026-05-04 08:47 | 35.60014 | -14.38991 | 32089 ft | 442 kts | 26° |
| 2026-05-04 08:48 | 35.65537 | -14.35680 | 32089 ft | 442 kts | 26° |
| 2026-05-04 08:48 | 35.71075 | -14.32355 | 32089 ft | 442 kts | 26° |
| 2026-05-04 08:49 | 35.76601 | -14.29031 | 32089 ft | 442 kts | 26° |
| 2026-05-04 08:50 | 35.95906 | -14.17379 | 32089 ft | 442 kts | 26° |
| 2026-05-04 08:51 | 36.01402 | -14.14050 | 32089 ft | 442 kts | 26° |
| 2026-05-04 08:51 | 36.06943 | -14.10688 | 32089 ft | 442 kts | 26° |
| 2026-05-04 08:52 | 36.12441 | -14.07348 | 32089 ft | 442 kts | 26° |
| 2026-05-04 08:52 | 36.17960 | -14.03990 | 32089 ft | 442 kts | 26° |
| 2026-05-04 08:54 | 36.39980 | -13.90540 | 33241 ft | 440 kts | 26° |
| 2026-05-04 08:55 | 36.42723 | -13.88857 | 33409 ft | 439 kts | 26° |
| 2026-05-04 08:55 | 36.45468 | -13.87172 | 33573 ft | 439 kts | 26° |
| 2026-05-04 08:55 | 36.48193 | -13.85498 | 33729 ft | 439 kts | 26° |
| 2026-05-04 08:55 | 36.50917 | -13.83824 | 33882 ft | 438 kts | 26° |
| 2026-05-04 08:57 | 36.70020 | -13.72038 | 34088 ft | 438 kts | 26° |
| 2026-05-04 09:01 | 37.06440 | -13.44331 | 34082 ft | 446 kts | 30° |
| 2026-05-04 09:01 | 37.11667 | -13.40160 | 34082 ft | 453 kts | 31° |
| 2026-05-04 09:02 | 37.17032 | -13.35871 | 34087 ft | 457 kts | 31° |
| 2026-05-04 09:02 | 37.22401 | -13.31561 | 34087 ft | 457 kts | 31° |
| 2026-05-04 09:03 | 37.27776 | -13.27239 | 34088 ft | 457 kts | 31° |
| 2026-05-04 09:03 | 37.33142 | -13.22918 | 34088 ft | 457 kts | 31° |
| 2026-05-04 09:04 | 37.38536 | -13.18568 | 34089 ft | 457 kts | 31° |
| 2026-05-04 09:04 | 37.43872 | -13.14258 | 34089 ft | 455 kts | 31° |
| 2026-05-04 09:05 | 37.49201 | -13.09947 | 34089 ft | 454 kts | 32° |
| 2026-05-04 09:05 | 37.54544 | -13.05616 | 34089 ft | 453 kts | 32° |
| 2026-05-04 09:06 | 37.59833 | -13.01322 | 34089 ft | 451 kts | 32° |
| 2026-05-04 09:08 | 37.80942 | -12.84100 | 34088 ft | 450 kts | 32° |
| 2026-05-04 09:08 | 37.86232 | -12.79766 | 34088 ft | 450 kts | 32° |
| 2026-05-04 09:09 | 37.91491 | -12.75450 | 34088 ft | 450 kts | 32° |
| 2026-05-04 09:09 | 37.96752 | -12.71125 | 34088 ft | 450 kts | 32° |
| 2026-05-04 09:10 | 38.02028 | -12.66781 | 34088 ft | 450 kts | 32° |
| 2026-05-04 09:10 | 38.07262 | -12.62464 | 34088 ft | 450 kts | 32° |
| 2026-05-04 09:11 | 38.12533 | -12.58108 | 34088 ft | 450 kts | 32° |
| 2026-05-04 09:11 | 38.17806 | -12.53745 | 34088 ft | 450 kts | 32° |
| 2026-05-04 09:12 | 38.23048 | -12.49399 | 34088 ft | 450 kts | 32° |
| 2026-05-04 09:14 | 38.44051 | -12.31909 | 34088 ft | 449 kts | 33° |
| 2026-05-04 09:14 | 38.49292 | -12.27524 | 34088 ft | 450 kts | 33° |
| 2026-05-04 09:15 | 38.54539 | -12.23128 | 34088 ft | 449 kts | 33° |
| 2026-05-04 09:15 | 38.59777 | -12.18730 | 34088 ft | 449 kts | 33° |
| 2026-05-04 09:17 | 38.83347 | -11.98849 | 34088 ft | 449 kts | 33° |
| 2026-05-04 09:18 | 38.88579 | -11.94413 | 34088 ft | 449 kts | 33° |
| 2026-05-04 09:18 | 38.93819 | -11.89949 | 34085 ft | 451 kts | 32° |
| 2026-05-04 09:19 | 38.99054 | -11.85490 | 34082 ft | 456 kts | 31° |
| 2026-05-04 09:19 | 39.04399 | -11.80942 | 34078 ft | 464 kts | 30° |
| 2026-05-04 09:20 | 39.09821 | -11.76323 | 34086 ft | 468 kts | 31° |
| 2026-05-04 09:20 | 39.15294 | -11.71643 | 34088 ft | 468 kts | 31° |
| 2026-05-04 09:21 | 39.20727 | -11.66986 | 34088 ft | 468 kts | 31° |
| 2026-05-04 09:21 | 39.26150 | -11.62329 | 34088 ft | 468 kts | 31° |
| 2026-05-04 09:22 | 39.31603 | -11.57638 | 34088 ft | 468 kts | 31° |
| 2026-05-04 09:22 | 39.37013 | -11.52975 | 34088 ft | 468 kts | 31° |
| 2026-05-04 09:23 | 39.42439 | -11.48288 | 34088 ft | 468 kts | 31° |
| 2026-05-04 09:23 | 39.47865 | -11.43593 | 34088 ft | 468 kts | 31° |
| 2026-05-04 09:25 | 39.69570 | -11.24722 | 34088 ft | 468 kts | 31° |
| 2026-05-04 09:26 | 39.74995 | -11.19983 | 34088 ft | 468 kts | 31° |
| 2026-05-04 09:26 | 39.80388 | -11.15262 | 34088 ft | 468 kts | 31° |
| 2026-05-04 09:27 | 39.85837 | -11.10481 | 34088 ft | 468 kts | 31° |
| 2026-05-04 09:27 | 39.91255 | -11.05720 | 34088 ft | 468 kts | 31° |
| 2026-05-04 09:28 | 39.96698 | -11.00929 | 34089 ft | 467 kts | 31° |
| 2026-05-04 09:28 | 40.02100 | -10.96167 | 34089 ft | 466 kts | 32° |
| 2026-05-04 09:29 | 40.07480 | -10.91414 | 34088 ft | 465 kts | 32° |
| 2026-05-04 09:29 | 40.12850 | -10.86658 | 34084 ft | 464 kts | 32° |
| 2026-05-04 09:30 | 40.18239 | -10.81876 | 34077 ft | 463 kts | 32° |
| 2026-05-04 09:30 | 40.23583 | -10.77123 | 34068 ft | 462 kts | 33° |
| 2026-05-04 09:31 | 40.28911 | -10.72374 | 34064 ft | 462 kts | 33° |
| 2026-05-04 09:31 | 40.34242 | -10.67616 | 34062 ft | 462 kts | 33° |
| 2026-05-04 09:32 | 40.39602 | -10.62822 | 34062 ft | 462 kts | 33° |
| 2026-05-04 09:34 | 40.60878 | -10.43702 | 34062 ft | 461 kts | 33° |
| 2026-05-04 09:34 | 40.66200 | -10.38895 | 34062 ft | 461 kts | 33° |
| 2026-05-04 09:35 | 40.71519 | -10.34082 | 34061 ft | 461 kts | 33° |
| 2026-05-04 09:35 | 40.76822 | -10.29273 | 34062 ft | 461 kts | 33° |
| 2026-05-04 09:37 | 40.98500 | -10.10860 | 34059 ft | 461 kts | 28° |
| 2026-05-04 09:38 | 41.04122 | -10.06478 | 34057 ft | 467 kts | 28° |
| 2026-05-04 09:38 | 41.09761 | -10.02065 | 34056 ft | 473 kts | 27° |
| 2026-05-04 09:39 | 41.15492 | -9.97575 | 34059 ft | 477 kts | 26° |
| 2026-05-04 09:39 | 41.21249 | -9.93059 | 34061 ft | 477 kts | 26° |
| 2026-05-04 09:40 | 41.26954 | -9.88570 | 34062 ft | 477 kts | 26° |
| 2026-05-04 09:40 | 41.32702 | -9.84035 | 34062 ft | 477 kts | 26° |
| 2026-05-04 09:42 | 41.55644 | -9.65838 | 34062 ft | 478 kts | 27° |
| 2026-05-04 09:43 | 41.61381 | -9.61262 | 34062 ft | 478 kts | 27° |
| 2026-05-04 09:43 | 41.67119 | -9.56675 | 34062 ft | 478 kts | 27° |
| 2026-05-04 09:44 | 41.72842 | -9.52092 | 34062 ft | 479 kts | 27° |
| 2026-05-04 09:46 | 41.96087 | -9.34591 | 34060 ft | 473 kts | 16° |
| 2026-05-04 09:46 | 42.02301 | -9.31674 | 34062 ft | 471 kts | 14° |
| 2026-05-04 09:47 | 42.08550 | -9.28851 | 34062 ft | 471 kts | 14° |
| 2026-05-04 09:49 | 42.33448 | -9.17368 | 34062 ft | 471 kts | 14° |
| 2026-05-04 09:51 | 42.55234 | -9.07215 | 34062 ft | 472 kts | 14° |
| 2026-05-04 09:51 | 42.61461 | -9.04299 | 34062 ft | 471 kts | 14° |
| 2026-05-04 09:52 | 42.67680 | -9.01380 | 34062 ft | 471 kts | 14° |
| 2026-05-04 09:52 | 42.73917 | -8.98447 | 34062 ft | 471 kts | 14° |
| 2026-05-04 09:53 | 42.80114 | -8.95527 | 34062 ft | 471 kts | 14° |
| 2026-05-04 09:53 | 42.86334 | -8.92588 | 34062 ft | 471 kts | 14° |
| 2026-05-04 09:54 | 42.92554 | -8.89643 | 34062 ft | 470 kts | 14° |
| 2026-05-04 09:54 | 42.98701 | -8.86726 | 34062 ft | 468 kts | 14° |
| 2026-05-04 09:55 | 43.04864 | -8.83797 | 34062 ft | 467 kts | 14° |
| 2026-05-04 09:55 | 43.11044 | -8.80854 | 34059 ft | 468 kts | 14° |
| 2026-05-04 09:56 | 43.17256 | -8.77891 | 34047 ft | 471 kts | 14° |
| 2026-05-04 09:56 | 43.23490 | -8.74912 | 34151 ft | 477 kts | 14° |
| 2026-05-04 09:57 | 43.29803 | -8.71886 | 34322 ft | 480 kts | 14° |
| 2026-05-04 09:57 | 43.32104 | -8.70780 | 34430 ft | 480 kts | 14° |
| 2026-05-04 09:57 | 43.35258 | -8.69264 | 34600 ft | 480 kts | 14° |
| 2026-05-04 09:57 | 43.38411 | -8.67747 | 34772 ft | 479 kts | 14° |
| 2026-05-04 09:58 | 43.41549 | -8.66236 | 34932 ft | 478 kts | 14° |
| 2026-05-04 09:58 | 43.47885 | -8.63180 | 35031 ft | 478 kts | 14° |
| 2026-05-04 10:00 | 43.73075 | -8.50958 | 35035 ft | 478 kts | 14° |
| 2026-05-04 10:04 | 44.17182 | -8.29293 | 35035 ft | 478 kts | 15° |
| 2026-05-04 10:04 | 44.23473 | -8.26174 | 35035 ft | 478 kts | 15° |
| 2026-05-04 10:05 | 44.29718 | -8.23071 | 35035 ft | 478 kts | 15° |
| 2026-05-04 10:05 | 44.36032 | -8.19927 | 35035 ft | 478 kts | 15° |
| 2026-05-04 10:06 | 44.42321 | -8.16789 | 35035 ft | 478 kts | 15° |
| 2026-05-04 10:06 | 44.48603 | -8.13646 | 35035 ft | 478 kts | 15° |
| 2026-05-04 10:08 | 44.70552 | -8.02608 | 35035 ft | 477 kts | 15° |
| 2026-05-04 10:08 | 44.76850 | -7.99424 | 35035 ft | 477 kts | 15° |
| 2026-05-04 10:09 | 44.83096 | -7.96258 | 35035 ft | 477 kts | 15° |
| 2026-05-04 10:09 | 44.89374 | -7.93066 | 35035 ft | 477 kts | 15° |
| 2026-05-04 10:10 | 44.95672 | -7.89858 | 35035 ft | 477 kts | 15° |
| 2026-05-04 10:10 | 45.01880 | -7.86493 | 35032 ft | 481 kts | 16° |
| 2026-05-04 10:11 | 45.08118 | -7.82886 | 35031 ft | 485 kts | 15° |
| 2026-05-04 10:11 | 45.14431 | -7.79232 | 35032 ft | 490 kts | 14° |
| 2026-05-04 10:12 | 45.20793 | -7.75564 | 35034 ft | 490 kts | 14° |
| 2026-05-04 10:12 | 45.27119 | -7.71909 | 35035 ft | 491 kts | 14° |
| 2026-05-04 10:13 | 45.33455 | -7.68232 | 35035 ft | 490 kts | 14° |
| 2026-05-04 10:13 | 45.39775 | -7.64556 | 35035 ft | 490 kts | 14° |
| 2026-05-04 10:14 | 45.46130 | -7.60851 | 35035 ft | 490 kts | 14° |
| 2026-05-04 10:16 | 45.71428 | -7.46009 | 35035 ft | 490 kts | 14° |
| 2026-05-04 10:16 | 45.77747 | -7.42279 | 35035 ft | 490 kts | 14° |
| 2026-05-04 10:17 | 45.84053 | -7.38546 | 35034 ft | 489 kts | 14° |
| 2026-05-04 10:19 | 46.09331 | -7.23497 | 35035 ft | 490 kts | 15° |
| 2026-05-04 10:19 | 46.15665 | -7.19702 | 35034 ft | 490 kts | 15° |
| 2026-05-04 10:20 | 46.21988 | -7.15904 | 35035 ft | 489 kts | 15° |
| 2026-05-04 10:20 | 46.28249 | -7.12134 | 35036 ft | 488 kts | 15° |
| 2026-05-04 10:21 | 46.34562 | -7.08322 | 35036 ft | 487 kts | 15° |
| 2026-05-04 10:21 | 46.40799 | -7.04549 | 35036 ft | 486 kts | 15° |
| 2026-05-04 10:22 | 46.50167 | -6.98862 | 35028 ft | 484 kts | 15° |
| 2026-05-04 10:23 | 46.56411 | -6.95060 | 35010 ft | 482 kts | 15° |
| 2026-05-04 10:25 | 46.81218 | -6.79862 | 34980 ft | 482 kts | 15° |
| 2026-05-04 10:25 | 46.87392 | -6.76056 | 34980 ft | 482 kts | 15° |
| 2026-05-04 10:26 | 46.93627 | -6.72192 | 34976 ft | 485 kts | 14° |
| 2026-05-04 10:26 | 46.99901 | -6.68297 | 34975 ft | 491 kts | 13° |
| 2026-05-04 10:27 | 47.06278 | -6.64339 | 34977 ft | 498 kts | 12° |
| 2026-05-04 10:27 | 47.12679 | -6.60364 | 34978 ft | 501 kts | 12° |
| 2026-05-04 10:28 | 47.19116 | -6.56345 | 34980 ft | 500 kts | 12° |
| 2026-05-04 10:28 | 47.25535 | -6.52325 | 34980 ft | 500 kts | 12° |
| 2026-05-04 10:29 | 47.31995 | -6.48270 | 34980 ft | 501 kts | 12° |
| 2026-05-04 10:29 | 47.38405 | -6.44233 | 34980 ft | 500 kts | 12° |
| 2026-05-04 10:30 | 47.44843 | -6.40169 | 34981 ft | 500 kts | 12° |
| 2026-05-04 10:30 | 47.51258 | -6.36107 | 34981 ft | 500 kts | 12° |
| 2026-05-04 10:31 | 47.57663 | -6.32044 | 34978 ft | 500 kts | 13° |
| 2026-05-04 10:32 | 47.80212 | -6.17649 | 34981 ft | 501 kts | 13° |
| 2026-05-04 10:33 | 47.86623 | -6.13529 | 34981 ft | 501 kts | 13° |
| 2026-05-04 10:33 | 47.93070 | -6.09377 | 34980 ft | 501 kts | 13° |
| 2026-05-04 10:34 | 47.99491 | -6.05231 | 34980 ft | 501 kts | 13° |
| 2026-05-04 10:34 | 48.05922 | -6.01068 | 34980 ft | 501 kts | 13° |
| 2026-05-04 10:35 | 48.12316 | -5.96913 | 34979 ft | 501 kts | 13° |
| 2026-05-04 10:35 | 48.18711 | -5.92749 | 34980 ft | 501 kts | 13° |
| 2026-05-04 10:36 | 48.25145 | -5.88549 | 34979 ft | 501 kts | 13° |
| 2026-05-04 10:36 | 48.31531 | -5.84368 | 34981 ft | 501 kts | 13° |
| 2026-05-04 10:37 | 48.37985 | -5.80131 | 34980 ft | 500 kts | 13° |
| 2026-05-04 10:37 | 48.44400 | -5.75908 | 34980 ft | 501 kts | 13° |
| 2026-05-04 10:39 | 48.66791 | -5.61074 | 34980 ft | 501 kts | 13° |
| 2026-05-04 10:40 | 48.73174 | -5.56819 | 34981 ft | 501 kts | 13° |
| 2026-05-04 10:40 | 48.79575 | -5.52539 | 34979 ft | 500 kts | 13° |
| 2026-05-04 10:41 | 48.85939 | -5.48274 | 34980 ft | 500 kts | 13° |
| 2026-05-04 10:41 | 48.92347 | -5.43967 | 34979 ft | 500 kts | 13° |
| 2026-05-04 10:42 | 48.98744 | -5.39650 | 34978 ft | 501 kts | 13° |
| 2026-05-04 10:42 | 49.05225 | -5.35264 | 34976 ft | 508 kts | 12° |
| 2026-05-04 10:43 | 49.11670 | -5.30900 | 34972 ft | 516 kts | 12° |
| 2026-05-04 10:45 | 49.38204 | -5.12773 | 34980 ft | 520 kts | 12° |
| 2026-05-04 10:45 | 49.44859 | -5.08208 | 34979 ft | 519 kts | 11° |
| 2026-05-04 10:46 | 49.51554 | -5.04527 | 34980 ft | 503 kts | 2° |
| 2026-05-04 10:46 | 49.58287 | -5.01979 | 34981 ft | 497 kts | 359° |
| 2026-05-04 10:47 | 49.65060 | -4.99571 | 34981 ft | 496 kts | 359° |
| 2026-05-04 10:47 | 49.71798 | -4.97118 | 34981 ft | 496 kts | 359° |
| 2026-05-04 10:49 | 49.98597 | -4.87144 | 34981 ft | 492 kts | 360° |
| 2026-05-04 10:50 | 50.05257 | -4.84645 | 34985 ft | 491 kts | 360° |
| 2026-05-04 10:52 | 50.31816 | -4.74609 | 35005 ft | 489 kts | 360° |
| 2026-05-04 10:52 | 50.38415 | -4.72098 | 35005 ft | 489 kts | 360° |
| 2026-05-04 10:54 | 50.64931 | -4.61932 | 35005 ft | 489 kts | 360° |
| 2026-05-04 10:56 | 50.91444 | -4.51649 | 35005 ft | 489 kts | 0° |
| 2026-05-04 10:57 | 50.98086 | -4.49060 | 35004 ft | 489 kts | 0° |
| 2026-05-04 10:57 | 51.04715 | -4.46464 | 35004 ft | 490 kts | 1° |
| 2026-05-04 10:58 | 51.11344 | -4.43851 | 35002 ft | 490 kts | 1° |
| 2026-05-04 10:58 | 51.17976 | -4.41232 | 35005 ft | 490 kts | 1° |
| 2026-05-04 10:59 | 51.24636 | -4.38595 | 35005 ft | 490 kts | 1° |
| 2026-05-04 10:59 | 51.31288 | -4.35954 | 35005 ft | 490 kts | 1° |
| 2026-05-04 11:00 | 51.37916 | -4.33098 | 35002 ft | 498 kts | 7° |
| 2026-05-04 11:01 | 51.59885 | -4.13863 | 35005 ft | 519 kts | 21° |
| 2026-05-04 11:02 | 51.63032 | -4.10900 | 35005 ft | 518 kts | 21° |
| 2026-05-04 11:05 | 52.09636 | -3.66155 | 35005 ft | 518 kts | 21° |
| 2026-05-04 11:06 | 52.15809 | -3.60132 | 35004 ft | 518 kts | 21° |
| 2026-05-04 11:06 | 52.21944 | -3.54128 | 35006 ft | 518 kts | 21° |
| 2026-05-04 11:10 | 52.65591 | -3.14306 | 35037 ft | 490 kts | 2° |
| 2026-05-04 11:12 | 52.88273 | -3.00454 | 35050 ft | 509 kts | 15° |
| 2026-05-04 11:12 | 52.91492 | -2.98067 | 35051 ft | 500 kts | 10° |
| 2026-05-04 11:12 | 52.98000 | -2.94102 | 35055 ft | 496 kts | 7° |
| 2026-05-04 11:13 | 53.04487 | -2.90241 | 35057 ft | 497 kts | 8° |
| 2026-05-04 11:13 | 53.10961 | -2.86269 | 35057 ft | 498 kts | 9° |
| 2026-05-04 11:14 | 53.12016 | -2.85617 | 35056 ft | 498 kts | 9° |
| 2026-05-04 11:16 | 53.43388 | -2.66056 | 35060 ft | 499 kts | 9° |
| 2026-05-04 11:16 | 53.49930 | -2.61946 | 35060 ft | 499 kts | 9° |
| 2026-05-04 11:17 | 53.56414 | -2.57855 | 35060 ft | 499 kts | 9° |
| 2026-05-04 11:19 | 53.82468 | -2.41286 | 35059 ft | 500 kts | 9° |
| 2026-05-04 11:19 | 53.89005 | -2.37088 | 35059 ft | 500 kts | 9° |
| 2026-05-04 11:20 | 53.95505 | -2.32879 | 35056 ft | 503 kts | 12° |
| 2026-05-04 11:20 | 54.01894 | -2.27683 | 35059 ft | 515 kts | 21° |
| 2026-05-04 11:22 | 54.22287 | -2.01400 | 35060 ft | 527 kts | 31° |
| 2026-05-04 11:22 | 54.25138 | -1.97556 | 35060 ft | 526 kts | 31° |
| 2026-05-04 11:23 | 54.30925 | -1.89755 | 35060 ft | 526 kts | 31° |
| 2026-05-04 11:25 | 54.51130 | -1.62318 | 35060 ft | 527 kts | 31° |
| 2026-05-04 11:25 | 54.56896 | -1.54420 | 35060 ft | 527 kts | 31° |
| 2026-05-04 11:27 | 54.82752 | -1.18647 | 35060 ft | 529 kts | 32° |
| 2026-05-04 11:28 | 54.88511 | -1.10592 | 35060 ft | 528 kts | 31° |
| 2026-05-04 11:28 | 54.94244 | -1.02548 | 35062 ft | 524 kts | 32° |
| 2026-05-04 11:29 | 54.99925 | -0.94549 | 35062 ft | 519 kts | 32° |
| 2026-05-04 11:29 | 55.05540 | -0.86614 | 35061 ft | 515 kts | 32° |
| 2026-05-04 11:33 | 55.44406 | -0.30837 | 35040 ft | 515 kts | 33° |
| 2026-05-04 11:33 | 55.49973 | -0.22727 | 35042 ft | 516 kts | 33° |
| 2026-05-04 11:34 | 55.55512 | -0.14626 | 35041 ft | 516 kts | 33° |
| 2026-05-04 11:34 | 55.61032 | -0.06523 | 35041 ft | 516 kts | 33° |
| 2026-05-04 11:35 | 55.66571 | 0.01638 | 35042 ft | 516 kts | 33° |
| 2026-05-04 11:35 | 55.72100 | 0.09816 | 35038 ft | 516 kts | 33° |
| 2026-05-04 11:36 | 55.77625 | 0.18019 | 35036 ft | 516 kts | 33° |
| 2026-05-04 11:36 | 55.83149 | 0.26251 | 35035 ft | 516 kts | 33° |
| 2026-05-04 11:37 | 55.88664 | 0.34501 | 35035 ft | 516 kts | 33° |
| 2026-05-04 11:37 | 55.94178 | 0.42782 | 35035 ft | 516 kts | 33° |
| 2026-05-04 11:38 | 55.99726 | 0.51148 | 35034 ft | 516 kts | 33° |
| 2026-05-04 11:38 | 56.05188 | 0.59415 | 35029 ft | 516 kts | 33° |
| 2026-05-04 11:39 | 56.10724 | 0.67822 | 35008 ft | 517 kts | 34° |
| 2026-05-04 11:41 | 56.29971 | 0.97326 | 34951 ft | 518 kts | 34° |
| 2026-05-04 11:41 | 56.35465 | 1.05824 | 34945 ft | 518 kts | 34° |
| 2026-05-04 11:42 | 56.40948 | 1.14336 | 34948 ft | 518 kts | 34° |
| 2026-05-04 11:42 | 56.46448 | 1.22908 | 34948 ft | 519 kts | 34° |
| 2026-05-04 11:43 | 56.51947 | 1.31504 | 34945 ft | 521 kts | 34° |
| 2026-05-04 11:43 | 56.57451 | 1.40156 | 34952 ft | 521 kts | 34° |
| 2026-05-04 11:44 | 56.62938 | 1.48814 | 34967 ft | 521 kts | 34° |
| 2026-05-04 11:44 | 56.68417 | 1.57493 | 34977 ft | 521 kts | 34° |
| 2026-05-04 11:45 | 56.73936 | 1.66268 | 34976 ft | 521 kts | 35° |
| 2026-05-04 11:45 | 56.79398 | 1.74983 | 34982 ft | 522 kts | 35° |
| 2026-05-04 11:46 | 56.84877 | 1.83768 | 34984 ft | 522 kts | 35° |
| 2026-05-04 11:46 | 56.90371 | 1.92612 | 34982 ft | 523 kts | 35° |
| 2026-05-04 11:47 | 56.95831 | 2.01436 | 34984 ft | 523 kts | 35° |
| 2026-05-04 11:47 | 57.01299 | 2.10282 | 34986 ft | 521 kts | 37° |
| 2026-05-04 11:48 | 57.06725 | 2.19100 | 34986 ft | 516 kts | 38° |
| 2026-05-04 11:48 | 57.12108 | 2.27906 | 34987 ft | 510 kts | 40° |
| 2026-05-04 11:49 | 57.17401 | 2.36624 | 34985 ft | 507 kts | 40° |
| 2026-05-04 11:49 | 57.22669 | 2.45332 | 34985 ft | 506 kts | 40° |
| 2026-05-04 11:50 | 57.27903 | 2.54003 | 34986 ft | 507 kts | 39° |
| 2026-05-04 11:50 | 57.33179 | 2.62773 | 34986 ft | 507 kts | 39° |
| 2026-05-04 11:51 | 57.38472 | 2.71605 | 34985 ft | 507 kts | 40° |
| 2026-05-04 11:51 | 57.43655 | 2.80294 | 34985 ft | 507 kts | 40° |
| 2026-05-04 11:52 | 57.48902 | 2.89122 | 34986 ft | 507 kts | 40° |
| 2026-05-04 11:52 | 57.54155 | 2.98000 | 34985 ft | 508 kts | 40° |
| 2026-05-04 11:53 | 57.59429 | 3.06949 | 34985 ft | 510 kts | 40° |
| 2026-05-04 11:53 | 57.64706 | 3.15937 | 34985 ft | 512 kts | 40° |
| 2026-05-04 11:55 | 57.85780 | 3.52213 | 34984 ft | 512 kts | 40° |
| 2026-05-04 11:56 | 57.91008 | 3.61422 | 34982 ft | 513 kts | 43° |
| 2026-05-04 11:56 | 57.95964 | 3.71212 | 34981 ft | 514 kts | 46° |
| 2026-05-04 11:57 | 58.00881 | 3.81234 | 34982 ft | 514 kts | 46° |
| 2026-05-04 11:57 | 58.05776 | 3.91223 | 34982 ft | 514 kts | 46° |
| 2026-05-04 11:58 | 58.10684 | 4.01251 | 34979 ft | 514 kts | 46° |
| 2026-05-04 11:58 | 58.15563 | 4.11254 | 34980 ft | 515 kts | 46° |
| 2026-05-04 11:59 | 58.20426 | 4.21266 | 34968 ft | 515 kts | 46° |
| 2026-05-04 11:59 | 58.25325 | 4.31398 | 34937 ft | 515 kts | 46° |
| 2026-05-04 12:00 | 58.30186 | 4.41495 | 34901 ft | 515 kts | 46° |
| 2026-05-04 12:00 | 58.35039 | 4.51619 | 34885 ft | 515 kts | 46° |
| 2026-05-04 12:01 | 58.39919 | 4.61846 | 34879 ft | 515 kts | 46° |
| 2026-05-04 12:02 | 58.56823 | 4.97635 | 34883 ft | 515 kts | 46° |
| 2026-05-04 12:03 | 58.61613 | 5.07879 | 34888 ft | 513 kts | 46° |
| 2026-05-04 12:03 | 58.66399 | 5.18148 | 34892 ft | 513 kts | 46° |
| 2026-05-04 12:04 | 58.71202 | 5.28505 | 34895 ft | 513 kts | 46° |
| 2026-05-04 12:04 | 58.75968 | 5.38833 | 34895 ft | 514 kts | 46° |
| 2026-05-04 12:05 | 58.80730 | 5.49203 | 34895 ft | 514 kts | 46° |
| 2026-05-04 12:05 | 58.85470 | 5.59574 | 34895 ft | 514 kts | 46° |
| 2026-05-04 12:06 | 58.90029 | 5.70387 | 34894 ft | 515 kts | 52° |
| 2026-05-04 12:06 | 58.94344 | 5.81603 | 34896 ft | 515 kts | 53° |
| 2026-05-04 12:07 | 58.98600 | 5.92777 | 34896 ft | 514 kts | 54° |
| 2026-05-04 12:07 | 59.02871 | 6.03993 | 34896 ft | 512 kts | 54° |
| 2026-05-04 12:08 | 59.07133 | 6.15225 | 34896 ft | 511 kts | 54° |
| 2026-05-04 12:08 | 59.11383 | 6.26484 | 34893 ft | 511 kts | 54° |
| 2026-05-04 12:09 | 59.15616 | 6.37738 | 34895 ft | 512 kts | 54° |
| 2026-05-04 12:09 | 59.19853 | 6.49054 | 34896 ft | 512 kts | 54° |
| 2026-05-04 12:10 | 59.24049 | 6.60315 | 34896 ft | 512 kts | 54° |
| 2026-05-04 12:10 | 59.28241 | 6.71622 | 34895 ft | 512 kts | 56° |
| 2026-05-04 12:11 | 59.32424 | 6.82953 | 34895 ft | 512 kts | 54° |
| 2026-05-04 12:11 | 59.36870 | 6.94031 | 34896 ft | 512 kts | 52° |
| 2026-05-04 12:12 | 59.41373 | 7.04917 | 34895 ft | 511 kts | 52° |
| 2026-05-04 12:12 | 59.45877 | 7.15886 | 34885 ft | 508 kts | 52° |
| 2026-05-04 12:14 | 59.63372 | 7.59192 | 33828 ft | 500 kts | 52° |
| 2026-05-04 12:15 | 59.65506 | 7.64532 | 33338 ft | 498 kts | 52° |
| 2026-05-04 12:15 | 59.67652 | 7.69909 | 32749 ft | 498 kts | 53° |
| 2026-05-04 12:15 | 59.69804 | 7.75321 | 32109 ft | 500 kts | 53° |
| 2026-05-04 12:15 | 59.71956 | 7.80743 | 31440 ft | 501 kts | 53° |
| 2026-05-04 12:16 | 59.74094 | 7.86142 | 30754 ft | 503 kts | 53° |
| 2026-05-04 12:16 | 59.76254 | 7.91613 | 30043 ft | 505 kts | 53° |
| 2026-05-04 12:16 | 59.78392 | 7.97038 | 29330 ft | 507 kts | 53° |
| 2026-05-04 12:16 | 59.80557 | 8.02541 | 28599 ft | 508 kts | 53° |
| 2026-05-04 12:17 | 59.82735 | 8.08093 | 27875 ft | 509 kts | 53° |
| 2026-05-04 12:17 | 59.84900 | 8.13626 | 27109 ft | 511 kts | 53° |
| 2026-05-04 12:17 | 59.87083 | 8.19216 | 26380 ft | 511 kts | 53° |
| 2026-05-04 12:17 | 59.89222 | 8.24709 | 25884 ft | 506 kts | 53° |
| 2026-05-04 12:18 | 59.91372 | 8.30238 | 25384 ft | 501 kts | 53° |
| 2026-05-04 12:18 | 59.93484 | 8.35687 | 24883 ft | 496 kts | 53° |
| 2026-05-04 12:18 | 59.95563 | 8.41063 | 24386 ft | 492 kts | 53° |
| 2026-05-04 12:18 | 59.97656 | 8.46487 | 23880 ft | 488 kts | 53° |
| 2026-05-04 12:19 | 59.99712 | 8.51827 | 23380 ft | 484 kts | 53° |
| 2026-05-04 12:19 | 60.01755 | 8.57148 | 22880 ft | 481 kts | 53° |
| 2026-05-04 12:19 | 60.03766 | 8.62396 | 22385 ft | 477 kts | 53° |
| 2026-05-04 12:19 | 60.05779 | 8.67661 | 21915 ft | 472 kts | 54° |
| 2026-05-04 12:20 | 60.07737 | 8.72793 | 21741 ft | 463 kts | 54° |
| 2026-05-04 12:20 | 60.09690 | 8.77923 | 21739 ft | 464 kts | 54° |
| 2026-05-04 12:20 | 60.11650 | 8.83087 | 21736 ft | 465 kts | 54° |
| 2026-05-04 12:20 | 60.13613 | 8.88272 | 21737 ft | 465 kts | 54° |
| 2026-05-04 12:21 | 60.15558 | 8.93422 | 21737 ft | 465 kts | 54° |
| 2026-05-04 12:21 | 60.17491 | 8.98551 | 21737 ft | 465 kts | 54° |
| 2026-05-04 12:21 | 60.19454 | 9.03770 | 21737 ft | 465 kts | 54° |
| 2026-05-04 12:21 | 60.21403 | 9.08962 | 21737 ft | 465 kts | 54° |
| 2026-05-04 12:22 | 60.23355 | 9.14174 | 21733 ft | 454 kts | 54° |
| 2026-05-04 12:22 | 60.25223 | 9.19168 | 21732 ft | 437 kts | 54° |
| 2026-05-04 12:22 | 60.27040 | 9.24036 | 21732 ft | 421 kts | 54° |
| 2026-05-04 12:22 | 60.28782 | 9.28719 | 21731 ft | 405 kts | 54° |
| 2026-05-04 12:23 | 60.30449 | 9.33196 | 21732 ft | 392 kts | 54° |
| 2026-05-04 12:23 | 60.32076 | 9.37540 | 21729 ft | 377 kts | 54° |
| 2026-05-04 12:23 | 60.33826 | 9.41508 | 21711 ft | 374 kts | 35° |
| 2026-05-04 12:23 | 60.36138 | 9.43837 | 21567 ft | 362 kts | 7° |
| 2026-05-04 12:24 | 60.38586 | 9.43968 | 21155 ft | 343 kts | 338° |
| 2026-05-04 12:24 | 60.40664 | 9.41991 | 20646 ft | 321 kts | 310° |
| 2026-05-04 12:24 | 60.42164 | 9.38743 | 20240 ft | 308 kts | 300° |
| 2026-05-04 12:24 | 60.43314 | 9.35171 | 19830 ft | 295 kts | 284° |
| 2026-05-04 12:25 | 60.43857 | 9.31244 | 19407 ft | 281 kts | 268° |
| 2026-05-04 12:25 | 60.43973 | 9.27301 | 19020 ft | 277 kts | 265° |
| 2026-05-04 12:25 | 60.44067 | 9.23369 | 18623 ft | 276 kts | 266° |
| 2026-05-04 12:25 | 60.44055 | 9.19513 | 18213 ft | 269 kts | 253° |
| 2026-05-04 12:26 | 60.43427 | 9.16000 | 17795 ft | 260 kts | 236° |
| 2026-05-04 12:26 | 60.42284 | 9.13181 | 17392 ft | 257 kts | 220° |
| 2026-05-04 12:26 | 60.40796 | 9.11280 | 16980 ft | 257 kts | 204° |
| 2026-05-04 12:26 | 60.39021 | 9.10423 | 16553 ft | 262 kts | 187° |
| 2026-05-04 12:27 | 60.37182 | 9.10798 | 16137 ft | 270 kts | 170° |
| 2026-05-04 12:27 | 60.35466 | 9.12451 | 15859 ft | 279 kts | 151° |
| 2026-05-04 12:27 | 60.34058 | 9.15377 | 15848 ft | 296 kts | 130° |
| 2026-05-04 12:27 | 60.33233 | 9.19319 | 15853 ft | 313 kts | 108° |
| 2026-05-04 12:28 | 60.32938 | 9.23753 | 15886 ft | 318 kts | 102° |
| 2026-05-04 12:28 | 60.32754 | 9.28265 | 15893 ft | 318 kts | 101° |
| 2026-05-04 12:28 | 60.32580 | 9.32732 | 15909 ft | 318 kts | 101° |
| 2026-05-04 12:28 | 60.32390 | 9.37211 | 15934 ft | 318 kts | 101° |
| 2026-05-04 12:29 | 60.32344 | 9.41785 | 15916 ft | 327 kts | 84° |
| 2026-05-04 12:29 | 60.33188 | 9.46077 | 15836 ft | 336 kts | 55° |
| 2026-05-04 12:29 | 60.34906 | 9.49346 | 15764 ft | 336 kts | 27° |
| 2026-05-04 12:29 | 60.37098 | 9.50870 | 15738 ft | 328 kts | 360° |
| 2026-05-04 12:30 | 60.39337 | 9.50502 | 15730 ft | 315 kts | 334° |
| 2026-05-04 12:30 | 60.41220 | 9.48531 | 15727 ft | 299 kts | 311° |
| 2026-05-04 12:30 | 60.42549 | 9.45436 | 15726 ft | 283 kts | 290° |
| 2026-05-04 12:30 | 60.43224 | 9.41758 | 15726 ft | 270 kts | 271° |
| 2026-05-04 12:31 | 60.43413 | 9.37997 | 15735 ft | 267 kts | 267° |
| 2026-05-04 12:31 | 60.43543 | 9.34216 | 15727 ft | 267 kts | 267° |
| 2026-05-04 12:31 | 60.43685 | 9.30440 | 15728 ft | 267 kts | 268° |
| 2026-05-04 12:31 | 60.43842 | 9.26615 | 15735 ft | 267 kts | 268° |
| 2026-05-04 12:32 | 60.44004 | 9.22869 | 15744 ft | 267 kts | 268° |
| 2026-05-04 12:32 | 60.43288 | 9.15746 | 15762 ft | 253 kts | 234° |
| 2026-05-04 12:32 | 60.42146 | 9.13038 | 15774 ft | 252 kts | 219° |
| 2026-05-04 12:33 | 60.40638 | 9.11209 | 15786 ft | 254 kts | 203° |
| 2026-05-04 12:33 | 60.38879 | 9.10440 | 15799 ft | 260 kts | 186° |
| 2026-05-04 12:33 | 60.37033 | 9.10922 | 15814 ft | 270 kts | 168° |
| 2026-05-04 12:33 | 60.35322 | 9.12675 | 15826 ft | 283 kts | 149° |
| 2026-05-04 12:34 | 60.33956 | 9.15678 | 15841 ft | 298 kts | 128° |
| 2026-05-04 12:34 | 60.33190 | 9.19722 | 15859 ft | 314 kts | 106° |
| 2026-05-04 12:34 | 60.32919 | 9.24153 | 15890 ft | 318 kts | 101° |
| 2026-05-04 12:34 | 60.32742 | 9.28624 | 15900 ft | 319 kts | 101° |
| 2026-05-04 12:35 | 60.32565 | 9.33124 | 15918 ft | 318 kts | 101° |
| 2026-05-04 12:35 | 60.32373 | 9.37613 | 15944 ft | 318 kts | 101° |
| 2026-05-04 12:35 | 60.32367 | 9.42177 | 15785 ft | 331 kts | 88° |
| 2026-05-04 12:35 | 60.32781 | 9.46852 | 15541 ft | 333 kts | 82° |
| 2026-05-04 12:36 | 60.33290 | 9.51428 | 15291 ft | 332 kts | 82° |
| 2026-05-04 12:36 | 60.33787 | 9.55994 | 15040 ft | 330 kts | 82° |
| 2026-05-04 12:36 | 60.34253 | 9.60572 | 14788 ft | 329 kts | 83° |
| 2026-05-04 12:36 | 60.34694 | 9.65164 | 14535 ft | 327 kts | 84° |
| 2026-05-04 12:37 | 60.35111 | 9.69689 | 14283 ft | 325 kts | 85° |
| 2026-05-04 12:37 | 60.35518 | 9.74218 | 14046 ft | 323 kts | 85° |
| 2026-05-04 12:37 | 60.35916 | 9.78709 | 13811 ft | 322 kts | 85° |
| 2026-05-04 12:37 | 60.36312 | 9.83227 | 13562 ft | 322 kts | 85° |
| 2026-05-04 12:38 | 60.36699 | 9.87668 | 13344 ft | 320 kts | 85° |
| 2026-05-04 12:38 | 60.37085 | 9.92106 | 13115 ft | 319 kts | 85° |
| 2026-05-04 12:38 | 60.37467 | 9.96530 | 12803 ft | 317 kts | 85° |
| 2026-05-04 12:38 | 60.37843 | 10.00905 | 12453 ft | 315 kts | 85° |
| 2026-05-04 12:39 | 60.38192 | 10.04977 | 12114 ft | 313 kts | 85° |
| 2026-05-04 12:39 | 60.38575 | 10.09469 | 11735 ft | 311 kts | 85° |
| 2026-05-04 12:39 | 60.38939 | 10.13779 | 11359 ft | 310 kts | 84° |
| 2026-05-04 12:39 | 60.39298 | 10.18046 | 10976 ft | 309 kts | 84° |
| 2026-05-04 12:40 | 60.39659 | 10.22370 | 10582 ft | 308 kts | 83° |
| 2026-05-04 12:40 | 60.40014 | 10.26627 | 10209 ft | 307 kts | 83° |
| 2026-05-04 12:40 | 60.40346 | 10.30600 | 10050 ft | 302 kts | 83° |
| 2026-05-04 12:40 | 60.40699 | 10.34797 | 9984 ft | 290 kts | 84° |
| 2026-05-04 12:41 | 60.41031 | 10.38742 | 9918 ft | 281 kts | 84° |
| 2026-05-04 12:41 | 60.41354 | 10.42710 | 9850 ft | 281 kts | 83° |
| 2026-05-04 12:41 | 60.41671 | 10.46693 | 9782 ft | 284 kts | 83° |
| 2026-05-04 12:41 | 60.42005 | 10.50689 | 9745 ft | 283 kts | 83° |
| 2026-05-04 12:42 | 60.42329 | 10.54685 | 9555 ft | 284 kts | 82° |
| 2026-05-04 12:42 | 60.42657 | 10.58657 | 9320 ft | 280 kts | 83° |
| 2026-05-04 12:42 | 60.42974 | 10.62554 | 9048 ft | 276 kts | 83° |
| 2026-05-04 12:42 | 60.43283 | 10.66378 | 8770 ft | 272 kts | 83° |
| 2026-05-04 12:43 | 60.43590 | 10.70235 | 8486 ft | 268 kts | 83° |
| 2026-05-04 12:43 | 60.43888 | 10.73945 | 8191 ft | 265 kts | 83° |
| 2026-05-04 12:43 | 60.44182 | 10.77632 | 7920 ft | 259 kts | 81° |
| 2026-05-04 12:43 | 60.44469 | 10.81269 | 7571 ft | 255 kts | 81° |
| 2026-05-04 12:44 | 60.44754 | 10.84852 | 7080 ft | 256 kts | 80° |
| 2026-05-04 12:44 | 60.45035 | 10.88407 | 6767 ft | 253 kts | 80° |
| 2026-05-04 12:44 | 60.45319 | 10.91984 | 6463 ft | 251 kts | 80° |
| 2026-05-04 12:44 | 60.45594 | 10.95520 | 6166 ft | 248 kts | 80° |
| 2026-05-04 12:45 | 60.45861 | 10.98957 | 5879 ft | 242 kts | 80° |
| 2026-05-04 12:45 | 60.46123 | 11.02283 | 5679 ft | 229 kts | 80° |
| 2026-05-04 12:45 | 60.46363 | 11.05356 | 5644 ft | 209 kts | 81° |
| 2026-05-04 12:45 | 60.46372 | 11.08207 | 5570 ft | 188 kts | 104° |
| 2026-05-04 12:46 | 60.45845 | 11.10545 | 5396 ft | 181 kts | 129° |
| 2026-05-04 12:46 | 60.45039 | 11.12528 | 5188 ft | 178 kts | 134° |
| 2026-05-04 12:46 | 60.44196 | 11.14405 | 4986 ft | 179 kts | 134° |
| 2026-05-04 12:46 | 60.43421 | 11.16138 | 4785 ft | 180 kts | 132° |
| 2026-05-04 12:47 | 60.42576 | 11.18106 | 4577 ft | 178 kts | 134° |
| 2026-05-04 12:47 | 60.41758 | 11.20013 | 4354 ft | 177 kts | 131° |
| 2026-05-04 12:47 | 60.40937 | 11.21892 | 4175 ft | 177 kts | 140° |
| 2026-05-04 12:47 | 60.39893 | 11.23105 | 3920 ft | 161 kts | 169° |
| 2026-05-04 12:48 | 60.38792 | 11.23121 | 3915 ft | 158 kts | 193° |
| 2026-05-04 12:48 | 60.37723 | 11.22583 | 3935 ft | 157 kts | 201° |
| 2026-05-04 12:48 | 60.36678 | 11.21910 | 3890 ft | 156 kts | 201° |
| 2026-05-04 12:48 | 60.35626 | 11.21232 | 3818 ft | 156 kts | 200° |
| 2026-05-04 12:49 | 60.34588 | 11.20593 | 3591 ft | 155 kts | 200° |
| 2026-05-04 12:49 | 60.33552 | 11.19980 | 3407 ft | 154 kts | 200° |
| 2026-05-04 12:49 | 60.32515 | 11.19381 | 3196 ft | 153 kts | 200° |
| 2026-05-04 12:49 | 60.31502 | 11.18801 | 3002 ft | 153 kts | 199° |
| 2026-05-04 12:50 | 60.30476 | 11.18215 | 2807 ft | 153 kts | 199° |
| 2026-05-04 12:50 | 60.29436 | 11.17621 | 2594 ft | 152 kts | 199° |
| 2026-05-04 12:50 | 60.28397 | 11.17026 | 2394 ft | 153 kts | 199° |
| 2026-05-04 12:50 | 60.27374 | 11.16442 | 2189 ft | 151 kts | 199° |
| 2026-05-04 12:51 | 60.26352 | 11.15854 | 1971 ft | 153 kts | 199° |
| 2026-05-04 12:51 | 60.25318 | 11.15258 | 1778 ft | 151 kts | 199° |
| 2026-05-04 12:51 | 60.24294 | 11.14671 | 1551 ft | 152 kts | 197° |
| 2026-05-04 12:51 | 60.23249 | 11.14106 | 1345 ft | 153 kts | 197° |
| 2026-05-04 12:52 | 60.22220 | 11.13518 | 1136 ft | 151 kts | 199° |
| 2026-05-04 12:52 | 60.21219 | 11.12922 | 991 ft | 151 kts | 199° |
| 2026-05-04 12:52 | 60.20197 | 11.12305 | 757 ft | 149 kts | 198° |
| 2026-05-04 12:52 | 60.19245 | 11.11756 | 704 ft | 128 kts | 197° |
| 2026-05-04 12:53 | 60.18599 | 11.11371 | 709 ft | 52 kts | 196° |
| 2026-05-04 12:53 | 60.18372 | 11.11239 | 707 ft | 29 kts | 195° |
| 2026-05-04 12:53 | 60.18173 | 11.11109 | 698 ft | 30 kts | 204° |
| 2026-05-04 12:53 | 60.18071 | 11.10974 | 693 ft | 14 kts | 224° |
| 2026-05-04 12:54 | 60.18040 | 11.10856 | 690 ft | 6 kts | 264° |
| 2026-05-04 12:54 | 60.18046 | 11.10759 | 690 ft | 6 kts | 290° |
| 2026-05-04 12:54 | 60.18053 | 11.10726 | 690 ft | 1 kts | 290° |
| 2026-05-04 12:54 | 60.18056 | 11.10710 | 690 ft | 1 kts | 283° |
| 2026-05-04 12:55 | 60.18060 | 11.10660 | 690 ft | 7 kts | 280° |
| 2026-05-04 12:55 | 60.18093 | 11.10545 | 691 ft | 12 kts | 337° |
| 2026-05-04 12:55 | 60.18175 | 11.10563 | 695 ft | 10 kts | 16° |
| 2026-05-04 12:55 | 60.18198 | 11.10577 | 695 ft | 10 kts | 16° |
| 2026-05-04 12:57 | 60.18523 | 11.10763 | 703 ft | 14 kts | 15° |
| 2026-05-04 12:57 | 60.18631 | 11.10826 | 702 ft | 17 kts | 16° |